Fort Wayne (FWA/KFWA)

Map

Destinations

Information

Location
Fort Wayne, IN
Local Time
09:15 / 9:15 am
GMT Time
14:15 / 2:15 pm
Gates
Unassigned
No FAA reported delays
METAR KFWA 221354Z 13005KT 10SM SCT120 BKN250 09/07 A2960 RMK AO2 SLP025 T00890072
TAF KFWA 221139Z 2212/2312 VRB02KT 6SM BR OVC090 FM221300 08003KT 2SM BR BKN015 FM221600 05006KT P6SM SCT020 OVC100 FM222300 03008KT P6SM OVC012 FM230100 02008KT 3SM BR OVC006 FM230300 01010KT 1SM BR VCSH OVC004
  • No charts available